sensor_id;sensor_type;location;lat;lon;timestamp;pressure;altitude;pressure_sealevel;temperature;humidity
61136;BME280;47021;51.340;12.432;2023-04-27T00:14:06;100451.66;;;6.97;57.77
61136;BME280;47021;51.340;12.432;2023-04-27T00:22:01;100440.22;;;7.13;57.89
61136;BME280;47021;51.340;12.432;2023-04-27T00:33:04;100443.50;;;7.03;57.33
61136;BME280;47021;51.340;12.432;2023-04-27T00:35:47;100441.28;;;6.97;57.69
61136;BME280;47021;51.340;12.432;2023-04-27T00:46:40;100437.47;;;7.02;57.82
61136;BME280;47021;51.340;12.432;2023-04-27T01:08:43;100439.84;;;6.79;58.38
61136;BME280;47021;51.340;12.432;2023-04-27T01:17:00;100454.59;;;6.78;58.03
61136;BME280;47021;51.340;12.432;2023-04-27T01:30:37;100466.28;;;6.71;58.26
61136;BME280;47021;51.340;12.432;2023-04-27T01:33:14;100470.34;;;6.75;58.12
61136;BME280;47021;51.340;12.432;2023-04-27T01:38:26;100470.69;;;6.83;58.21
61136;BME280;47021;51.340;12.432;2023-04-27T02:11:10;100475.25;;;6.80;58.19
61136;BME280;47021;51.340;12.432;2023-04-27T02:41:57;100497.13;;;6.48;59.27
61136;BME280;47021;51.340;12.432;2023-04-27T02:49:56;100497.13;;;6.48;59.20
61136;BME280;47021;51.340;12.432;2023-04-27T03:03:27;100503.91;;;6.50;59.37
61136;BME280;47021;51.340;12.432;2023-04-27T03:06:12;100503.78;;;6.52;59.13
61136;BME280;47021;51.340;12.432;2023-04-27T03:11:34;100507.03;;;6.41;59.12
61136;BME280;47021;51.340;12.432;2023-04-27T03:14:13;100509.44;;;6.44;59.53
61136;BME280;47021;51.340;12.432;2023-04-27T03:17:06;100506.09;;;6.42;59.55
61136;BME280;47021;51.340;12.432;2023-04-27T03:22:52;100515.28;;;6.48;59.68
61136;BME280;47021;51.340;12.432;2023-04-27T03:28:07;100522.88;;;6.51;59.28
61136;BME280;47021;51.340;12.432;2023-04-27T03:33:21;100520.47;;;6.48;59.15
61136;BME280;47021;51.340;12.432;2023-04-27T03:46:53;100523.91;;;6.48;59.05
61136;BME280;47021;51.340;12.432;2023-04-27T03:49:29;100532.59;;;6.47;59.16
61136;BME280;47021;51.340;12.432;2023-04-27T03:51:58;100527.31;;;6.49;58.97
61136;BME280;47021;51.340;12.432;2023-04-27T03:54:31;100530.56;;;6.52;58.86
61136;BME280;47021;51.340;12.432;2023-04-27T03:57:06;100531.13;;;6.43;58.96
61136;BME280;47021;51.340;12.432;2023-04-27T03:59:31;100539.34;;;6.35;58.76
61136;BME280;47021;51.340;12.432;2023-04-27T04:02:00;100540.28;;;6.34;59.45
61136;BME280;47021;51.340;12.432;2023-04-27T04:04:25;100543.41;;;6.25;59.25
61136;BME280;47021;51.340;12.432;2023-04-27T04:06:59;100542.69;;;6.37;59.33
61136;BME280;47021;51.340;12.432;2023-04-27T04:09:25;100552.06;;;6.54;59.09
61136;BME280;47021;51.340;12.432;2023-04-27T04:11:50;100552.81;;;6.56;58.73
61136;BME280;47021;51.340;12.432;2023-04-27T04:14:20;100556.88;;;6.60;58.93
61136;BME280;47021;51.340;12.432;2023-04-27T04:16:52;100563.38;;;6.67;58.80
61136;BME280;47021;51.340;12.432;2023-04-27T04:19:24;100571.09;;;6.83;58.55
61136;BME280;47021;51.340;12.432;2023-04-27T04:21:51;100573.66;;;6.97;58.25
61136;BME280;47021;51.340;12.432;2023-04-27T04:24:30;100572.06;;;7.08;57.71
61136;BME280;47021;51.340;12.432;2023-04-27T04:26:55;100575.91;;;7.03;58.30
61136;BME280;47021;51.340;12.432;2023-04-27T04:29:27;100578.56;;;7.01;59.16
61136;BME280;47021;51.340;12.432;2023-04-27T04:31:52;100577.69;;;7.29;58.87
61136;BME280;47021;51.340;12.432;2023-04-27T04:34:19;100569.63;;;7.34;58.54
61136;BME280;47021;51.340;12.432;2023-04-27T04:36:47;100572.84;;;7.51;58.14
61136;BME280;47021;51.340;12.432;2023-04-27T04:39:12;100566.97;;;7.62;57.63
61136;BME280;47021;51.340;12.432;2023-04-27T04:41:49;100575.69;;;7.61;57.70
61136;BME280;47021;51.340;12.432;2023-04-27T04:44:22;100571.72;;;7.82;56.92
61136;BME280;47021;51.340;12.432;2023-04-27T04:46:49;100566.56;;;7.95;56.61
61136;BME280;47021;51.340;12.432;2023-04-27T04:49:15;100566.41;;;8.10;56.32
61136;BME280;47021;51.340;12.432;2023-04-27T04:51:49;100571.25;;;8.02;56.32
61136;BME280;47021;51.340;12.432;2023-04-27T04:54:14;100567.53;;;8.19;55.60
61136;BME280;47021;51.340;12.432;2023-04-27T04:56:45;100569.13;;;8.21;56.45
61136;BME280;47021;51.340;12.432;2023-04-27T04:59:11;100554.63;;;8.57;56.15
61136;BME280;47021;51.340;12.432;2023-04-27T05:09:47;100551.47;;;9.02;54.82
61136;BME280;47021;51.340;12.432;2023-04-27T05:12:13;100560.59;;;9.20;54.45
61136;BME280;47021;51.340;12.432;2023-04-27T05:14:40;100564.94;;;9.32;54.51
61136;BME280;47021;51.340;12.432;2023-04-27T05:17:40;100568.72;;;9.28;54.17
61136;BME280;47021;51.340;12.432;2023-04-27T05:20:15;100560.97;;;9.27;54.31
61136;BME280;47021;51.340;12.432;2023-04-27T05:25:34;100559.50;;;9.35;53.85
61136;BME280;47021;51.340;12.432;2023-04-27T05:30:51;100551.16;;;9.66;53.29
61136;BME280;47021;51.340;12.432;2023-04-27T05:33:23;100554.03;;;9.74;53.27
61136;BME280;47021;51.340;12.432;2023-04-27T05:35:56;100559.00;;;9.90;52.82
61136;BME280;47021;51.340;12.432;2023-04-27T05:38:28;100560.09;;;9.99;53.05
61136;BME280;47021;51.340;12.432;2023-04-27T05:43:52;100559.97;;;10.00;52.71
61136;BME280;47021;51.340;12.432;2023-04-27T05:49:04;100565.66;;;10.05;52.54
61136;BME280;47021;51.340;12.432;2023-04-27T05:51:31;100562.91;;;10.19;52.33
61136;BME280;47021;51.340;12.432;2023-04-27T05:54:00;100557.91;;;10.16;52.48
61136;BME280;47021;51.340;12.432;2023-04-27T05:56:25;100565.75;;;10.27;52.09
61136;BME280;47021;51.340;12.432;2023-04-27T05:58:58;100564.72;;;10.41;52.05
61136;BME280;47021;51.340;12.432;2023-04-27T06:01:39;100558.94;;;10.48;51.47
61136;BME280;47021;51.340;12.432;2023-04-27T06:04:04;100566.69;;;10.72;51.16
61136;BME280;47021;51.340;12.432;2023-04-27T06:06:30;100566.13;;;10.91;50.75
61136;BME280;47021;51.340;12.432;2023-04-27T06:08:57;100562.06;;;10.98;50.20
61136;BME280;47021;51.340;12.432;2023-04-27T06:11:32;100568.47;;;10.94;50.33
61136;BME280;47021;51.340;12.432;2023-04-27T06:13:58;100566.94;;;10.91;50.13
61136;BME280;47021;51.340;12.432;2023-04-27T06:16:40;100567.31;;;11.09;49.56
61136;BME280;47021;51.340;12.432;2023-04-27T06:19:20;100572.28;;;11.12;49.52
61136;BME280;47021;51.340;12.432;2023-04-27T06:21:48;100573.47;;;10.97;49.61
61136;BME280;47021;51.340;12.432;2023-04-27T06:24:16;100582.50;;;11.04;49.61
61136;BME280;47021;51.340;12.432;2023-04-27T06:26:50;100576.34;;;11.16;49.00
61136;BME280;47021;51.340;12.432;2023-04-27T06:29:15;100577.75;;;11.09;49.17
61136;BME280;47021;51.340;12.432;2023-04-27T06:31:52;100582.13;;;11.19;48.98
61136;BME280;47021;51.340;12.432;2023-04-27T06:39:34;100584.81;;;11.51;47.55
61136;BME280;47021;51.340;12.432;2023-04-27T06:41:59;100583.72;;;11.65;47.43
61136;BME280;47021;51.340;12.432;2023-04-27T06:44:24;100586.72;;;11.60;47.01
61136;BME280;47021;51.340;12.432;2023-04-27T06:46:56;100593.91;;;11.36;48.00
61136;BME280;47021;51.340;12.432;2023-04-27T06:49:23;100590.81;;;11.09;48.52
61136;BME280;47021;51.340;12.432;2023-04-27T06:51:48;100595.91;;;11.10;48.30
61136;BME280;47021;51.340;12.432;2023-04-27T06:54:26;100597.91;;;10.74;49.26
61136;BME280;47021;51.340;12.432;2023-04-27T06:57:01;100604.06;;;10.73;50.08
61136;BME280;47021;51.340;12.432;2023-04-27T06:59:32;100591.84;;;11.73;47.68
61136;BME280;47021;51.340;12.432;2023-04-27T07:01:57;100591.53;;;11.00;48.94
61136;BME280;47021;51.340;12.432;2023-04-27T07:04:35;100595.44;;;11.05;49.11
61136;BME280;47021;51.340;12.432;2023-04-27T07:07:01;100594.41;;;11.84;48.01
61136;BME280;47021;51.340;12.432;2023-04-27T07:09:26;100597.28;;;12.33;46.28
61136;BME280;47021;51.340;12.432;2023-04-27T07:11:52;100592.25;;;12.62;46.40
61136;BME280;47021;51.340;12.432;2023-04-27T07:14:23;100602.38;;;12.97;45.27
61136;BME280;47021;51.340;12.432;2023-04-27T07:16:50;100599.81;;;12.55;45.91
61136;BME280;47021;51.340;12.432;2023-04-27T07:22:02;100599.88;;;12.13;45.84
61136;BME280;47021;51.340;12.432;2023-04-27T07:24:36;100602.69;;;12.52;46.28
61136;BME280;47021;51.340;12.432;2023-04-27T07:27:15;100598.72;;;12.79;45.22
61136;BME280;47021;51.340;12.432;2023-04-27T07:29:40;100608.88;;;13.23;44.23
61136;BME280;47021;51.340;12.432;2023-04-27T07:32:12;100601.19;;;13.99;42.67
61136;BME280;47021;51.340;12.432;2023-04-27T07:34:37;100607.25;;;13.31;44.20
61136;BME280;47021;51.340;12.432;2023-04-27T07:39:59;100603.38;;;13.94;42.50
61136;BME280;47021;51.340;12.432;2023-04-27T07:42:30;100603.78;;;13.90;42.60
61136;BME280;47021;51.340;12.432;2023-04-27T07:45:11;100601.72;;;14.12;41.83
61136;BME280;47021;51.340;12.432;2023-04-27T07:47:36;100605.31;;;14.21;42.02
61136;BME280;47021;51.340;12.432;2023-04-27T07:52:46;100621.00;;;13.54;43.27
61136;BME280;47021;51.340;12.432;2023-04-27T07:55:15;100613.47;;;13.89;42.71
61136;BME280;47021;51.340;12.432;2023-04-27T08:03:21;100614.56;;;13.28;43.53
61136;BME280;47021;51.340;12.432;2023-04-27T08:08:33;100621.22;;;13.41;44.90
61136;BME280;47021;51.340;12.432;2023-04-27T08:13:49;100619.25;;;13.83;43.90
61136;BME280;47021;51.340;12.432;2023-04-27T08:16:26;100615.84;;;14.40;44.72
61136;BME280;47021;51.340;12.432;2023-04-27T08:18:58;100621.78;;;14.33;43.36
61136;BME280;47021;51.340;12.432;2023-04-27T08:30:02;100630.63;;;14.51;42.19
61136;BME280;47021;51.340;12.432;2023-04-27T08:38:02;100610.19;;;15.10;41.14
61136;BME280;47021;51.340;12.432;2023-04-27T08:40:32;100609.44;;;14.71;41.55
61136;BME280;47021;51.340;12.432;2023-04-27T08:57:24;100600.88;;;14.69;40.80
61136;BME280;47021;51.340;12.432;2023-04-27T09:00:09;100607.59;;;15.65;40.19
61136;BME280;47021;51.340;12.432;2023-04-27T09:02:34;100608.25;;;15.39;39.73
61136;BME280;47021;51.340;12.432;2023-04-27T09:05:13;100605.81;;;15.83;38.84
61136;BME280;47021;51.340;12.432;2023-04-27T09:10:26;100604.00;;;16.01;37.90
61136;BME280;47021;51.340;12.432;2023-04-27T09:12:55;100609.56;;;15.26;39.01
61136;BME280;47021;51.340;12.432;2023-04-27T09:15:24;100610.47;;;14.32;40.23
61136;BME280;47021;51.340;12.432;2023-04-27T09:17:57;100596.69;;;15.23;38.78
61136;BME280;47021;51.340;12.432;2023-04-27T09:20:31;100596.44;;;15.53;38.45
61136;BME280;47021;51.340;12.432;2023-04-27T09:22:56;100600.25;;;14.95;39.28
61136;BME280;47021;51.340;12.432;2023-04-27T09:25:23;100589.63;;;15.95;38.04
61136;BME280;47021;51.340;12.432;2023-04-27T09:30:55;100597.53;;;15.23;37.40
61136;BME280;47021;51.340;12.432;2023-04-27T09:36:19;100596.63;;;14.40;38.83
61136;BME280;47021;51.340;12.432;2023-04-27T09:38:55;100584.88;;;15.27;38.19
61136;BME280;47021;51.340;12.432;2023-04-27T09:41:21;100597.13;;;14.72;37.85
61136;BME280;47021;51.340;12.432;2023-04-27T09:44:05;100586.78;;;15.07;36.97
61136;BME280;47021;51.340;12.432;2023-04-27T09:46:33;100588.09;;;14.94;36.79
61136;BME280;47021;51.340;12.432;2023-04-27T09:49:04;100588.75;;;14.21;39.18
61136;BME280;47021;51.340;12.432;2023-04-27T09:54:21;100581.34;;;14.81;38.67
61136;BME280;47021;51.340;12.432;2023-04-27T10:07:44;100574.72;;;15.41;37.49
61136;BME280;47021;51.340;12.432;2023-04-27T10:13:00;100576.75;;;14.83;37.82
61136;BME280;47021;51.340;12.432;2023-04-27T10:18:09;100571.91;;;15.52;37.87
61136;BME280;47021;51.340;12.432;2023-04-27T10:26:08;100569.25;;;14.98;36.54
61136;BME280;47021;51.340;12.432;2023-04-27T10:31:48;100575.31;;;14.62;36.93
61136;BME280;47021;51.340;12.432;2023-04-27T10:34:22;100579.81;;;15.52;35.88
61136;BME280;47021;51.340;12.432;2023-04-27T10:36:55;100563.63;;;16.36;35.37
61136;BME280;47021;51.340;12.432;2023-04-27T10:39:32;100572.28;;;16.97;34.98
61136;BME280;47021;51.340;12.432;2023-04-27T10:42:05;100584.41;;;15.68;37.22
61136;BME280;47021;51.340;12.432;2023-04-27T10:44:33;100581.56;;;14.98;37.63
61136;BME280;47021;51.340;12.432;2023-04-27T10:47:14;100585.41;;;14.66;37.31
61136;BME280;47021;51.340;12.432;2023-04-27T10:49:40;100580.31;;;15.83;36.18
61136;BME280;47021;51.340;12.432;2023-04-27T10:54:54;100581.34;;;14.81;36.21
61136;BME280;47021;51.340;12.432;2023-04-27T10:57:22;100573.56;;;14.34;36.71
61136;BME280;47021;51.340;12.432;2023-04-27T11:00:01;100583.72;;;15.39;36.26
61136;BME280;47021;51.340;12.432;2023-04-27T11:02:30;100572.28;;;16.28;35.27
61136;BME280;47021;51.340;12.432;2023-04-27T11:04:57;100562.88;;;16.94;34.00
61136;BME280;47021;51.340;12.432;2023-04-27T11:07:26;100568.34;;;15.44;34.66
61136;BME280;47021;51.340;12.432;2023-04-27T11:12:45;100573.94;;;14.95;34.94
61136;BME280;47021;51.340;12.432;2023-04-27T11:15:11;100565.00;;;16.22;34.48
61136;BME280;47021;51.340;12.432;2023-04-27T11:17:36;100566.22;;;15.92;33.73
61136;BME280;47021;51.340;12.432;2023-04-27T11:20:08;100569.88;;;15.46;34.79
61136;BME280;47021;51.340;12.432;2023-04-27T11:25:26;100568.22;;;14.72;34.83
61136;BME280;47021;51.340;12.432;2023-04-27T11:27:57;100585.72;;;14.15;36.13
61136;BME280;47021;51.340;12.432;2023-04-27T11:30:22;100587.22;;;14.37;35.55
61136;BME280;47021;51.340;12.432;2023-04-27T11:32:51;100587.44;;;14.82;35.22
61136;BME280;47021;51.340;12.432;2023-04-27T11:35:21;100578.78;;;16.16;33.84
61136;BME280;47021;51.340;12.432;2023-04-27T11:38:02;100575.19;;;15.99;33.75
61136;BME280;47021;51.340;12.432;2023-04-27T11:40:27;100565.81;;;16.40;33.07
61136;BME280;47021;51.340;12.432;2023-04-27T11:45:40;100580.75;;;15.96;33.60
61136;BME280;47021;51.340;12.432;2023-04-27T11:50:59;100565.63;;;17.60;31.83
61136;BME280;47021;51.340;12.432;2023-04-27T11:53:36;100565.97;;;16.21;33.22
61136;BME280;47021;51.340;12.432;2023-04-27T11:56:03;100580.38;;;15.74;33.37
61136;BME280;47021;51.340;12.432;2023-04-27T11:58:29;100575.97;;;15.47;33.92
61136;BME280;47021;51.340;12.432;2023-04-27T12:00:57;100584.63;;;14.93;34.44
61136;BME280;47021;51.340;12.432;2023-04-27T12:03:32;100587.97;;;14.85;34.88
61136;BME280;47021;51.340;12.432;2023-04-27T12:06:00;100585.16;;;14.97;34.86
61136;BME280;47021;51.340;12.432;2023-04-27T12:08:25;100585.84;;;15.35;35.25
61136;BME280;47021;51.340;12.432;2023-04-27T12:11:01;100577.94;;;15.63;34.68
61136;BME280;47021;51.340;12.432;2023-04-27T12:13:45;100566.53;;;17.02;33.29
61136;BME280;47021;51.340;12.432;2023-04-27T12:16:17;100567.78;;;17.65;32.36
61136;BME280;47021;51.340;12.432;2023-04-27T12:21:44;100573.22;;;16.01;34.78
61136;BME280;47021;51.340;12.432;2023-04-27T12:24:12;100571.16;;;15.60;35.02
61136;BME280;47021;51.340;12.432;2023-04-27T12:29:41;100571.53;;;16.36;33.87
61136;BME280;47021;51.340;12.432;2023-04-27T12:32:07;100570.00;;;15.90;34.29
61136;BME280;47021;51.340;12.432;2023-04-27T12:34:38;100579.13;;;15.50;35.00
61136;BME280;47021;51.340;12.432;2023-04-27T12:37:22;100571.22;;;15.50;35.02
61136;BME280;47021;51.340;12.432;2023-04-27T12:39:49;100576.41;;;14.69;36.02
61136;BME280;47021;51.340;12.432;2023-04-27T12:42:21;100565.50;;;16.25;34.07
61136;BME280;47021;51.340;12.432;2023-04-27T12:44:49;100553.47;;;17.34;31.54
61136;BME280;47021;51.340;12.432;2023-04-27T12:50:13;100567.78;;;17.65;31.49
61136;BME280;47021;51.340;12.432;2023-04-27T12:52:44;100558.22;;;16.88;32.04
61136;BME280;47021;51.340;12.432;2023-04-27T12:55:21;100550.00;;;16.40;32.05
61136;BME280;47021;51.340;12.432;2023-04-27T12:57:48;100563.16;;;16.40;32.65
61136;BME280;47021;51.340;12.432;2023-04-27T13:03:08;100561.53;;;16.90;32.00
61136;BME280;47021;51.340;12.432;2023-04-27T13:05:50;100552.41;;;17.11;31.43
61136;BME280;47021;51.340;12.432;2023-04-27T13:08:18;100566.00;;;16.64;32.08
61136;BME280;47021;51.340;12.432;2023-04-27T13:10:50;100566.16;;;16.02;33.15
61136;BME280;47021;51.340;12.432;2023-04-27T13:13:18;100553.94;;;16.18;32.74
61136;BME280;47021;51.340;12.432;2023-04-27T13:18:34;100557.50;;;15.92;32.21
61136;BME280;47021;51.340;12.432;2023-04-27T13:21:14;100548.16;;;16.84;30.46
61136;BME280;47021;51.340;12.432;2023-04-27T13:23:40;100552.22;;;16.27;31.39
61136;BME280;47021;51.340;12.432;2023-04-27T13:37:30;100541.25;;;18.23;29.49
61136;BME280;47021;51.340;12.432;2023-04-27T14:10:27;100522.84;;;16.65;32.30
61136;BME280;47021;51.340;12.432;2023-04-27T14:40:28;100499.00;;;18.78;29.29
61136;BME280;47021;51.340;12.432;2023-04-27T14:51:16;100501.28;;;17.20;30.16
61136;BME280;47021;51.340;12.432;2023-04-27T14:53:42;100493.00;;;17.56;29.58
61136;BME280;47021;51.340;12.432;2023-04-27T15:04:49;100503.09;;;17.19;30.46
61136;BME280;47021;51.340;12.432;2023-04-27T15:15:29;100488.19;;;18.32;30.98
61136;BME280;47021;51.340;12.432;2023-04-27T15:17:57;100496.59;;;17.39;30.76
61136;BME280;47021;51.340;12.432;2023-04-27T15:23:28;100487.00;;;17.46;30.56
61136;BME280;47021;51.340;12.432;2023-04-27T15:25:59;100492.53;;;17.69;30.52
61136;BME280;47021;51.340;12.432;2023-04-27T15:28:27;100483.78;;;17.93;30.27
61136;BME280;47021;51.340;12.432;2023-04-27T15:30:52;100484.53;;;18.50;29.99
61136;BME280;47021;51.340;12.432;2023-04-27T15:33:20;100491.25;;;17.31;31.63
61136;BME280;47021;51.340;12.432;2023-04-27T15:35:53;100488.06;;;17.78;31.40
61136;BME280;47021;51.340;12.432;2023-04-27T15:38:18;100495.56;;;17.40;32.15
61136;BME280;47021;51.340;12.432;2023-04-27T15:40:50;100480.91;;;16.96;32.24
61136;BME280;47021;51.340;12.432;2023-04-27T15:43:23;100478.16;;;17.55;32.38
61136;BME280;47021;51.340;12.432;2023-04-27T15:45:49;100479.13;;;17.62;31.89
61136;BME280;47021;51.340;12.432;2023-04-27T15:48:26;100474.94;;;17.28;31.78
61136;BME280;47021;51.340;12.432;2023-04-27T15:50:53;100478.97;;;17.56;31.52
61136;BME280;47021;51.340;12.432;2023-04-27T15:53:19;100467.56;;;18.04;30.76
61136;BME280;47021;51.340;12.432;2023-04-27T15:55:45;100471.38;;;17.53;30.64
61136;BME280;47021;51.340;12.432;2023-04-27T15:58:22;100474.34;;;17.90;30.54
61136;BME280;47021;51.340;12.432;2023-04-27T16:00:49;100465.63;;;17.57;31.92
61136;BME280;47021;51.340;12.432;2023-04-27T16:03:16;100466.91;;;17.86;31.07
61136;BME280;47021;51.340;12.432;2023-04-27T16:05:42;100461.31;;;17.65;31.49
61136;BME280;47021;51.340;12.432;2023-04-27T16:08:09;100459.44;;;17.41;31.24
61136;BME280;47021;51.340;12.432;2023-04-27T16:10:34;100467.41;;;16.99;32.26
61136;BME280;47021;51.340;12.432;2023-04-27T16:16:02;100462.88;;;17.25;31.45
61136;BME280;47021;51.340;12.432;2023-04-27T16:21:25;100454.88;;;17.51;32.02
61136;BME280;47021;51.340;12.432;2023-04-27T16:37:59;100439.19;;;17.98;30.33
61136;BME280;47021;51.340;12.432;2023-04-27T16:40:32;100443.19;;;18.65;30.07
61136;BME280;47021;51.340;12.432;2023-04-27T16:43:05;100438.81;;;19.41;29.03
61136;BME280;47021;51.340;12.432;2023-04-27T16:45:43;100444.81;;;18.74;29.25
61136;BME280;47021;51.340;12.432;2023-04-27T16:51:04;100437.38;;;19.76;27.53
61136;BME280;47021;51.340;12.432;2023-04-27T17:20:52;100458.16;;;17.61;31.24
61136;BME280;47021;51.340;12.432;2023-04-27T17:23:29;100463.94;;;16.99;33.22
61136;BME280;47021;51.340;12.432;2023-04-27T17:26:02;100459.84;;;17.04;32.64
61136;BME280;47021;51.340;12.432;2023-04-27T17:28:27;100460.66;;;16.97;32.90
61136;BME280;47021;51.340;12.432;2023-04-27T17:30:52;100454.84;;;16.51;33.52
61136;BME280;47021;51.340;12.432;2023-04-27T17:33:36;100468.53;;;16.03;34.44
61136;BME280;47021;51.340;12.432;2023-04-27T17:38:53;100473.22;;;15.57;34.86
61136;BME280;47021;51.340;12.432;2023-04-27T17:41:18;100472.63;;;15.18;36.15
61136;BME280;47021;51.340;12.432;2023-04-27T17:43:43;100479.50;;;15.56;35.05
61136;BME280;47021;51.340;12.432;2023-04-27T17:46:10;100478.19;;;15.60;35.14
61136;BME280;47021;51.340;12.432;2023-04-27T17:48:50;100470.75;;;15.55;35.14
61136;BME280;47021;51.340;12.432;2023-04-27T17:53:59;100479.34;;;15.12;36.21
61136;BME280;47021;51.340;12.432;2023-04-27T17:56:25;100477.66;;;15.11;36.44
61136;BME280;47021;51.340;12.432;2023-04-27T17:58:50;100476.78;;;15.20;35.97
61136;BME280;47021;51.340;12.432;2023-04-27T18:01:17;100480.25;;;15.38;36.06
61136;BME280;47021;51.340;12.432;2023-04-27T18:03:42;100478.31;;;15.93;39.10
61136;BME280;47021;51.340;12.432;2023-04-27T18:06:08;100474.50;;;15.70;38.80
61136;BME280;47021;51.340;12.432;2023-04-27T18:11:20;100479.19;;;16.19;38.43
61136;BME280;47021;51.340;12.432;2023-04-27T18:13:53;100481.34;;;15.63;35.58
61136;BME280;47021;51.340;12.432;2023-04-27T18:16:24;100482.38;;;15.35;36.82
61136;BME280;47021;51.340;12.432;2023-04-27T18:18:52;100484.13;;;15.62;36.14
61136;BME280;47021;51.340;12.432;2023-04-27T18:21:23;100490.03;;;15.28;36.17
61136;BME280;47021;51.340;12.432;2023-04-27T18:23:55;100489.25;;;15.18;36.04
61136;BME280;47021;51.340;12.432;2023-04-27T18:26:25;100489.50;;;15.25;36.76
61136;BME280;47021;51.340;12.432;2023-04-27T18:28:54;100493.69;;;15.18;36.44
61136;BME280;47021;51.340;12.432;2023-04-27T18:39:54;100505.00;;;15.28;36.20
61136;BME280;47021;51.340;12.432;2023-04-27T18:42:36;100505.56;;;15.22;36.31
61136;BME280;47021;51.340;12.432;2023-04-27T18:45:03;100514.72;;;15.18;36.15
61136;BME280;47021;51.340;12.432;2023-04-27T18:47:33;100510.59;;;15.15;36.64
61136;BME280;47021;51.340;12.432;2023-04-27T18:50:14;100519.72;;;14.94;38.09
61136;BME280;47021;51.340;12.432;2023-04-27T18:52:46;100511.34;;;14.80;38.17
61136;BME280;47021;51.340;12.432;2023-04-27T18:55:19;100508.44;;;14.74;38.72
61136;BME280;47021;51.340;12.432;2023-04-27T18:57:52;100521.72;;;14.72;39.23
61136;BME280;47021;51.340;12.432;2023-04-27T19:00:31;100517.72;;;14.78;39.79
61136;BME280;47021;51.340;12.432;2023-04-27T19:03:07;100512.03;;;14.82;39.62
61136;BME280;47021;51.340;12.432;2023-04-27T19:05:32;100507.44;;;14.84;39.90
61136;BME280;47021;51.340;12.432;2023-04-27T19:08:14;100504.13;;;14.82;39.13
61136;BME280;47021;51.340;12.432;2023-04-27T19:10:45;100498.75;;;14.74;38.91
61136;BME280;47021;51.340;12.432;2023-04-27T19:13:17;100498.97;;;14.54;39.49
61136;BME280;47021;51.340;12.432;2023-04-27T19:15:42;100492.63;;;14.47;39.52
61136;BME280;47021;51.340;12.432;2023-04-27T19:18:15;100485.53;;;13.82;40.40
61136;BME280;47021;51.340;12.432;2023-04-27T19:23:26;100492.84;;;13.97;39.46
61136;BME280;47021;51.340;12.432;2023-04-27T19:31:42;100498.78;;;13.61;40.16
61136;BME280;47021;51.340;12.432;2023-04-27T19:34:16;100493.66;;;13.50;40.34
61136;BME280;47021;51.340;12.432;2023-04-27T19:44:52;100504.22;;;13.10;40.00
61136;BME280;47021;51.340;12.432;2023-04-27T19:47:20;100501.06;;;12.46;41.21
61136;BME280;47021;51.340;12.432;2023-04-27T19:49:58;100501.81;;;12.98;40.43
61136;BME280;47021;51.340;12.432;2023-04-27T19:52:26;100497.59;;;12.76;40.38
61136;BME280;47021;51.340;12.432;2023-04-27T20:03:29;100508.78;;;13.18;40.16
61136;BME280;47021;51.340;12.432;2023-04-27T20:05:55;100514.88;;;13.28;39.25
61136;BME280;47021;51.340;12.432;2023-04-27T20:08:26;100508.59;;;12.70;40.72
61136;BME280;47021;51.340;12.432;2023-04-27T20:10:54;100508.38;;;13.13;40.38
61136;BME280;47021;51.340;12.432;2023-04-27T20:16:14;100515.94;;;12.46;41.89
61136;BME280;47021;51.340;12.432;2023-04-27T20:21:29;100506.72;;;12.82;41.16
61136;BME280;47021;51.340;12.432;2023-04-27T20:26:46;100507.59;;;12.92;41.23
61136;BME280;47021;51.340;12.432;2023-04-27T20:29:18;100508.22;;;12.24;42.55
61136;BME280;47021;51.340;12.432;2023-04-27T20:31:45;100511.09;;;12.71;41.30
61136;BME280;47021;51.340;12.432;2023-04-27T20:39:44;100506.81;;;12.70;41.53
61136;BME280;47021;51.340;12.432;2023-04-27T20:42:27;100499.28;;;12.87;41.05
61136;BME280;47021;51.340;12.432;2023-04-27T20:52:52;100493.53;;;12.32;42.60
61136;BME280;47021;51.340;12.432;2023-04-27T21:00:56;100491.53;;;12.45;42.61
61136;BME280;47021;51.340;12.432;2023-04-27T21:03:22;100480.50;;;12.51;42.06
61136;BME280;47021;51.340;12.432;2023-04-27T21:05:48;100482.78;;;12.65;41.92
61136;BME280;47021;51.340;12.432;2023-04-27T21:08:17;100475.06;;;12.64;42.31
61136;BME280;47021;51.340;12.432;2023-04-27T21:16:17;100475.28;;;12.51;42.67
61136;BME280;47021;51.340;12.432;2023-04-27T21:24:29;100472.28;;;12.26;43.49
61136;BME280;47021;51.340;12.432;2023-04-27T21:26:54;100475.91;;;12.34;43.12
61136;BME280;47021;51.340;12.432;2023-04-27T21:32:20;100475.06;;;12.13;44.17
61136;BME280;47021;51.340;12.432;2023-04-27T21:35:05;100474.97;;;11.94;44.52
61136;BME280;47021;51.340;12.432;2023-04-27T21:37:30;100474.88;;;12.26;43.71
61136;BME280;47021;51.340;12.432;2023-04-27T21:42:42;100475.47;;;12.09;44.32
61136;BME280;47021;51.340;12.432;2023-04-27T21:45:11;100480.00;;;12.07;44.07
61136;BME280;47021;51.340;12.432;2023-04-27T21:47:43;100468.13;;;12.02;44.20
61136;BME280;47021;51.340;12.432;2023-04-27T21:52:53;100478.84;;;11.79;44.56
61136;BME280;47021;51.340;12.432;2023-04-27T21:55:21;100477.38;;;11.54;44.96
61136;BME280;47021;51.340;12.432;2023-04-27T22:00:32;100469.06;;;11.81;44.50
61136;BME280;47021;51.340;12.432;2023-04-27T22:03:04;100470.84;;;12.01;43.89
61136;BME280;47021;51.340;12.432;2023-04-27T22:05:35;100471.97;;;11.78;44.32
61136;BME280;47021;51.340;12.432;2023-04-27T22:08:00;100473.97;;;11.74;44.57